createdAt,value
2017-08-05T00:00:03.183Z,18.23
2017-08-05T00:01:03.801Z,18.28
2017-08-05T00:02:04.420Z,18.26
2017-08-05T00:03:05.072Z,18.28
2017-08-05T00:04:05.938Z,18.22
2017-08-05T00:05:06.564Z,18.19
2017-08-05T00:06:07.178Z,18.20
2017-08-05T00:07:07.805Z,18.16
2017-08-05T00:08:08.427Z,18.22
2017-08-05T00:09:09.343Z,18.22
2017-08-05T00:10:09.963Z,18.22
2017-08-05T00:11:10.580Z,18.19
2017-08-05T00:12:11.233Z,18.11
2017-08-05T00:13:11.851Z,18.13
2017-08-05T00:14:12.802Z,18.20
2017-08-05T00:15:13.421Z,18.05
2017-08-05T00:16:14.039Z,18.16
2017-08-05T00:17:14.666Z,18.07
2017-08-05T00:18:15.279Z,18.16
2017-08-05T00:19:16.202Z,18.18
2017-08-05T00:20:16.824Z,18.22
2017-08-05T00:21:17.440Z,18.13
2017-08-05T00:22:18.058Z,18.22
2017-08-05T00:23:18.677Z,18.10
2017-08-05T00:24:19.548Z,18.04
2017-08-05T00:25:20.169Z,18.15
2017-08-05T00:26:20.787Z,18.04
2017-08-05T00:27:21.405Z,18.11
2017-08-05T00:28:22.040Z,18.18
2017-08-05T00:29:22.895Z,18.15
2017-08-05T00:30:23.513Z,18.15
2017-08-05T00:31:24.133Z,18.11
2017-08-05T00:32:24.785Z,18.11
2017-08-05T00:33:25.411Z,18.10
2017-08-05T00:34:26.313Z,18.11
2017-08-05T00:35:26.940Z,18.10
2017-08-05T00:36:27.557Z,18.10
2017-08-05T00:37:28.216Z,18.16
2017-08-05T00:38:28.831Z,18.08
2017-08-05T00:39:29.754Z,18.15
2017-08-05T00:40:30.370Z,18.13
2017-08-05T00:41:30.988Z,18.00
2017-08-05T00:42:31.615Z,18.11
2017-08-05T00:43:32.229Z,18.00
2017-08-05T00:44:33.097Z,17.98
2017-08-05T00:45:33.719Z,17.92
2017-08-05T00:46:34.332Z,17.87
2017-08-05T00:47:34.956Z,17.83
2017-08-05T00:48:35.609Z,17.87
2017-08-05T00:49:36.480Z,17.86
2017-08-05T00:50:37.098Z,17.86
2017-08-05T00:51:37.720Z,17.87
2017-08-05T00:52:38.343Z,17.70
2017-08-05T00:53:38.962Z,17.74
2017-08-05T00:54:39.877Z,17.68
2017-08-05T00:55:40.503Z,17.72
2017-08-05T00:56:41.117Z,17.65
2017-08-05T00:57:41.735Z,17.67
2017-08-05T00:58:42.361Z,17.67
2017-08-05T00:59:43.230Z,17.67
2017-08-05T01:00:43.849Z,17.57
2017-08-05T01:01:44.472Z,17.63
2017-08-05T01:02:45.088Z,17.51
2017-08-05T01:03:45.710Z,17.52
2017-08-05T01:04:46.572Z,17.49
2017-08-05T01:05:47.197Z,17.48
2017-08-05T01:06:47.818Z,17.52
2017-08-05T01:07:48.433Z,17.56
2017-08-05T01:08:49.051Z,17.51
2017-08-05T01:09:49.921Z,17.51
2017-08-05T01:10:50.573Z,17.51
2017-08-05T01:11:51.233Z,17.49
2017-08-05T01:12:51.850Z,17.49
2017-08-05T01:13:52.472Z,17.45
2017-08-05T01:14:53.428Z,17.34
2017-08-05T01:15:54.043Z,17.34
2017-08-05T01:16:54.694Z,17.26
2017-08-05T01:17:55.313Z,17.30
2017-08-05T01:18:55.934Z,17.29
2017-08-05T01:19:56.807Z,17.23
2017-08-05T01:20:57.437Z,17.31
2017-08-05T01:21:58.051Z,17.27
2017-08-05T01:22:58.667Z,17.24
2017-08-05T01:23:59.285Z,17.23
2017-08-05T01:25:00.152Z,17.22
2017-08-05T01:26:00.776Z,17.19
2017-08-05T01:27:01.393Z,17.12
2017-08-05T01:28:02.014Z,17.08
2017-08-05T01:29:02.637Z,17.11
2017-08-05T01:30:03.553Z,17.19
2017-08-05T01:31:04.175Z,17.19
2017-08-05T01:32:04.791Z,17.22
2017-08-05T01:33:05.411Z,17.22
2017-08-05T01:34:06.035Z,17.14
2017-08-05T01:35:06.905Z,17.12
2017-08-05T01:36:07.521Z,17.14
2017-08-05T01:37:08.140Z,17.12
2017-08-05T01:38:08.789Z,17.16
2017-08-05T01:39:09.439Z,17.11
2017-08-05T01:40:10.313Z,17.14
2017-08-05T01:41:10.934Z,17.14
2017-08-05T01:42:11.590Z,17.19
2017-08-05T01:43:12.205Z,17.14
2017-08-05T01:44:12.822Z,17.15
2017-08-05T01:45:13.689Z,17.12
2017-08-05T01:46:14.340Z,17.08
2017-08-05T01:47:14.964Z,17.15
2017-08-05T01:48:15.585Z,17.11
2017-08-05T01:49:16.201Z,17.16
2017-08-05T01:50:17.118Z,17.09
2017-08-05T01:51:17.737Z,17.11
2017-08-05T01:52:18.355Z,17.08
2017-08-05T01:53:18.972Z,16.97
2017-08-05T01:54:19.641Z,17.08
2017-08-05T01:55:20.573Z,17.02
2017-08-05T01:56:21.191Z,17.02
2017-08-05T01:57:21.809Z,16.99
2017-08-05T01:58:22.431Z,17.01
2017-08-05T01:59:23.054Z,16.90
2017-08-05T02:00:23.924Z,16.99
2017-08-05T02:01:24.539Z,16.96
2017-08-05T02:02:25.161Z,16.91
2017-08-05T02:03:25.776Z,16.96
2017-08-05T02:04:26.394Z,16.89
2017-08-05T02:05:27.260Z,16.86
2017-08-05T02:06:27.917Z,16.90
2017-08-05T02:07:28.532Z,16.96
2017-08-05T02:08:29.155Z,16.89
2017-08-05T02:09:29.770Z,16.89
2017-08-05T02:10:30.643Z,16.90
2017-08-05T02:11:31.257Z,16.93
2017-08-05T02:12:31.879Z,16.90
2017-08-05T02:13:32.496Z,16.86
2017-08-05T02:14:33.112Z,16.86
2017-08-05T02:15:33.987Z,16.91
2017-08-05T02:16:34.609Z,16.90
2017-08-05T02:17:35.225Z,16.89
2017-08-05T02:18:35.849Z,16.86
2017-08-05T02:19:36.467Z,16.93
2017-08-05T02:20:37.333Z,16.97
2017-08-05T02:21:37.951Z,16.91
2017-08-05T02:22:38.573Z,16.91
2017-08-05T02:23:39.189Z,16.86
2017-08-05T02:24:39.807Z,16.87
2017-08-05T02:25:40.729Z,16.89
2017-08-05T02:26:41.343Z,16.89
2017-08-05T02:27:41.960Z,16.90
2017-08-05T02:28:42.580Z,16.86
2017-08-05T02:29:43.194Z,16.86
2017-08-05T02:30:44.112Z,16.86
2017-08-05T02:31:44.734Z,16.89
2017-08-05T02:32:45.387Z,16.89
2017-08-05T02:33:46.035Z,16.93
2017-08-05T02:34:46.652Z,16.87
2017-08-05T02:35:47.611Z,16.76
2017-08-05T02:36:48.256Z,16.83
2017-08-05T02:37:48.869Z,16.86
2017-08-05T02:38:49.489Z,16.83
2017-08-05T02:39:50.107Z,16.87
2017-08-05T02:40:50.975Z,16.84
2017-08-05T02:41:51.600Z,16.81
2017-08-05T02:42:52.217Z,16.83
2017-08-05T02:43:52.873Z,16.66
2017-08-05T02:44:53.487Z,16.69
2017-08-05T02:45:54.357Z,16.79
2017-08-05T02:46:54.975Z,16.69
2017-08-05T02:47:55.627Z,16.75
2017-08-05T02:48:56.248Z,16.72
2017-08-05T02:49:56.866Z,16.69
2017-08-05T02:50:57.739Z,16.68
2017-08-05T02:51:58.355Z,16.69
2017-08-05T02:52:59.014Z,16.65
2017-08-05T02:53:59.625Z,16.57
2017-08-05T02:55:00.243Z,16.57
2017-08-05T02:56:01.115Z,16.61
2017-08-05T02:57:01.731Z,16.56
2017-08-05T02:58:02.355Z,16.50
2017-08-05T02:59:02.970Z,16.53
2017-08-05T03:00:03.589Z,16.50
2017-08-05T03:01:04.464Z,16.50
2017-08-05T03:02:05.078Z,16.58
2017-08-05T03:03:05.731Z,16.53
2017-08-05T03:04:06.354Z,16.57
2017-08-05T03:05:06.969Z,16.58
2017-08-05T03:06:07.835Z,16.58
2017-08-05T03:07:08.453Z,16.58
2017-08-05T03:08:09.069Z,16.60
2017-08-05T03:09:09.692Z,16.51
2017-08-05T03:10:10.312Z,16.56
2017-08-05T03:11:11.180Z,16.50
2017-08-05T03:12:11.806Z,16.43
2017-08-05T03:13:12.420Z,16.32
2017-08-05T03:14:13.033Z,16.47
2017-08-05T03:15:13.650Z,16.35
2017-08-05T03:16:14.516Z,16.33
2017-08-05T03:17:15.134Z,16.39
2017-08-05T03:18:15.753Z,16.33
2017-08-05T03:19:16.402Z,16.39
2017-08-05T03:20:17.018Z,16.42
2017-08-05T03:21:17.889Z,16.36
2017-08-05T03:22:18.508Z,16.39
2017-08-05T03:23:19.125Z,16.35
2017-08-05T03:24:19.743Z,16.35
2017-08-05T03:25:20.365Z,16.39
2017-08-05T03:26:21.227Z,16.32
2017-08-05T03:27:21.851Z,16.47
2017-08-05T03:28:22.465Z,16.43
2017-08-05T03:29:23.083Z,16.39
2017-08-05T03:30:23.702Z,16.39
2017-08-05T03:31:24.620Z,16.36
2017-08-05T03:32:25.236Z,16.35
2017-08-05T03:33:25.854Z,16.33
2017-08-05T03:34:26.472Z,16.38
2017-08-05T03:35:27.087Z,16.39
2017-08-05T03:36:27.954Z,16.41
2017-08-05T03:37:28.572Z,16.36
2017-08-05T03:38:29.188Z,16.39
2017-08-05T03:39:29.813Z,16.36
2017-08-05T03:40:30.427Z,16.35
2017-08-05T03:41:31.345Z,16.39
2017-08-05T03:42:31.968Z,16.33
2017-08-05T03:43:32.582Z,16.39
2017-08-05T03:44:33.200Z,16.38
2017-08-05T03:45:33.850Z,16.32
2017-08-05T03:46:34.758Z,16.24
2017-08-05T03:47:35.370Z,16.28
2017-08-05T03:48:35.992Z,16.21
2017-08-05T03:49:36.606Z,16.26
2017-08-05T03:50:37.257Z,16.21
2017-08-05T03:51:38.178Z,16.24
2017-08-05T03:52:38.795Z,16.24
2017-08-05T03:53:39.412Z,16.17
2017-08-05T03:54:40.037Z,16.21
2017-08-05T03:55:40.686Z,16.23
2017-08-05T03:56:41.609Z,16.16
2017-08-05T03:57:42.223Z,16.04
2017-08-05T03:58:42.840Z,16.10
2017-08-05T03:59:43.465Z,16.02
2017-08-05T04:00:44.077Z,16.20
2017-08-05T04:01:45.004Z,16.08
2017-08-05T04:02:45.653Z,16.10
2017-08-05T04:03:46.273Z,16.12
2017-08-05T04:04:46.888Z,16.12
2017-08-05T04:05:47.539Z,16.12
2017-08-05T04:06:48.454Z,16.20
2017-08-05T04:07:49.073Z,16.16
2017-08-05T04:08:49.697Z,16.09
2017-08-05T04:09:50.311Z,15.98
2017-08-05T04:10:50.930Z,16.04
2017-08-05T04:11:51.847Z,16.00
2017-08-05T04:12:52.478Z,16.00
2017-08-05T04:13:53.118Z,15.84
2017-08-05T04:14:53.739Z,15.88
2017-08-05T04:15:54.353Z,15.82
2017-08-05T04:16:55.224Z,15.82
2017-08-05T04:17:55.847Z,15.80
2017-08-05T04:18:56.464Z,15.82
2017-08-05T04:19:57.086Z,15.77
2017-08-05T04:20:57.706Z,15.82
2017-08-05T04:21:58.626Z,15.76
2017-08-05T04:22:59.242Z,15.75
2017-08-05T04:23:59.860Z,15.76
2017-08-05T04:25:00.478Z,15.76
2017-08-05T04:26:01.095Z,15.82
2017-08-05T04:27:02.017Z,15.77
2017-08-05T04:28:02.632Z,15.80
2017-08-05T04:29:03.252Z,15.79
2017-08-05T04:30:03.869Z,15.77
2017-08-05T04:31:04.488Z,15.80
2017-08-05T04:32:05.361Z,15.84
2017-08-05T04:33:05.976Z,15.91
2017-08-05T04:34:06.599Z,15.90
2017-08-05T04:35:07.218Z,15.94
2017-08-05T04:36:07.834Z,15.83
2017-08-05T04:37:08.708Z,15.92
2017-08-05T04:38:09.330Z,15.90
2017-08-05T04:39:09.950Z,15.76
2017-08-05T04:40:10.564Z,15.73
2017-08-05T04:41:11.183Z,15.75
2017-08-05T04:42:12.064Z,15.75
2017-08-05T04:43:12.674Z,15.73
2017-08-05T04:44:13.293Z,15.70
2017-08-05T04:45:13.916Z,15.62
2017-08-05T04:46:14.564Z,15.55
2017-08-05T04:47:15.488Z,15.58
2017-08-05T04:48:16.104Z,15.51
2017-08-05T04:49:16.729Z,15.49
2017-08-05T04:50:17.348Z,15.52
2017-08-05T04:51:17.968Z,15.49
2017-08-05T04:52:18.833Z,15.57
2017-08-05T04:53:19.451Z,15.47
2017-08-05T04:54:20.108Z,15.52
2017-08-05T04:55:20.723Z,15.57
2017-08-05T04:56:21.347Z,15.52
2017-08-05T04:57:22.211Z,15.54
2017-08-05T04:58:22.828Z,15.64
2017-08-05T04:59:23.445Z,15.68
2017-08-05T05:00:24.069Z,15.65
2017-08-05T05:01:24.684Z,15.67
2017-08-05T05:02:25.686Z,15.67
2017-08-05T05:03:26.312Z,15.65
2017-08-05T05:04:26.933Z,15.62
2017-08-05T05:05:27.547Z,15.67
2017-08-05T05:06:28.164Z,15.61
2017-08-05T05:07:29.030Z,15.67
2017-08-05T05:08:29.645Z,15.58
2017-08-05T05:09:30.266Z,15.47
2017-08-05T05:10:30.884Z,15.55
2017-08-05T05:11:31.502Z,15.49
2017-08-05T05:12:32.407Z,15.57
2017-08-05T05:13:33.023Z,15.55
2017-08-05T05:14:33.646Z,15.57
2017-08-05T05:15:34.261Z,15.72
2017-08-05T05:16:34.879Z,15.64
2017-08-05T05:17:35.780Z,15.62
2017-08-05T05:18:36.397Z,15.57
2017-08-05T05:19:37.020Z,15.64
2017-08-05T05:20:37.639Z,15.70
2017-08-05T05:21:38.262Z,15.67
2017-08-05T05:22:39.127Z,15.65
2017-08-05T05:23:39.745Z,15.73
2017-08-05T05:24:40.363Z,15.72
2017-08-05T05:25:40.984Z,15.77
2017-08-05T05:26:41.601Z,15.65
2017-08-05T05:27:43.021Z,15.72
2017-08-05T05:28:43.646Z,15.76
2017-08-05T05:29:44.260Z,15.80
2017-08-05T05:30:44.881Z,15.79
2017-08-05T05:31:45.495Z,15.80
2017-08-05T05:32:46.414Z,15.79
2017-08-05T05:33:47.037Z,15.86
2017-08-05T05:34:47.658Z,15.73
2017-08-05T05:35:48.274Z,15.91
2017-08-05T05:36:48.891Z,15.83
2017-08-05T05:37:49.808Z,15.94
2017-08-05T05:38:50.425Z,15.88
2017-08-05T05:39:51.045Z,15.98
2017-08-05T05:40:51.663Z,15.91
2017-08-05T05:41:52.280Z,15.94
2017-08-05T05:42:53.200Z,15.91
2017-08-05T05:43:53.817Z,15.92
2017-08-05T05:44:54.434Z,15.91
2017-08-05T05:45:55.053Z,15.84
2017-08-05T05:46:55.673Z,15.95
2017-08-05T05:47:56.589Z,15.95
2017-08-05T05:48:57.209Z,15.94
2017-08-05T05:49:57.863Z,15.97
2017-08-05T05:50:58.511Z,16.04
2017-08-05T05:51:59.129Z,15.97
2017-08-05T05:53:00.048Z,16.02
2017-08-05T05:54:00.665Z,15.97
2017-08-05T05:55:01.285Z,16.05
2017-08-05T05:56:01.905Z,16.01
2017-08-05T05:57:02.528Z,16.02
2017-08-05T05:58:03.423Z,16.02
2017-08-05T05:59:04.046Z,15.97
2017-08-05T06:00:04.662Z,15.94
2017-08-05T06:01:05.278Z,15.94
2017-08-05T06:02:05.929Z,15.98
2017-08-05T06:03:06.796Z,16.02
2017-08-05T06:04:07.447Z,16.10
2017-08-05T06:05:08.070Z,16.01
2017-08-05T06:06:08.690Z,16.13
2017-08-05T06:07:09.309Z,16.26
2017-08-05T06:08:10.260Z,16.20
2017-08-05T06:09:10.877Z,16.28
2017-08-05T06:10:11.495Z,16.28
2017-08-05T06:11:12.112Z,16.35
2017-08-05T06:12:12.731Z,16.41
2017-08-05T06:13:13.598Z,16.29
2017-08-05T06:14:14.221Z,16.47
2017-08-05T06:15:14.844Z,16.43
2017-08-05T06:16:15.462Z,16.47
2017-08-05T06:17:16.080Z,16.47
2017-08-05T06:18:16.999Z,16.47
2017-08-05T06:19:17.622Z,16.53
2017-08-05T06:20:18.238Z,16.61
2017-08-05T06:21:18.858Z,16.64
2017-08-05T06:22:19.476Z,16.60
2017-08-05T06:23:20.349Z,16.58
2017-08-05T06:24:20.966Z,16.60
2017-08-05T06:25:21.588Z,16.64
2017-08-05T06:26:22.209Z,16.64
2017-08-05T06:27:22.825Z,16.58
2017-08-05T06:28:23.699Z,16.66
2017-08-05T06:29:24.314Z,16.69
2017-08-05T06:30:24.933Z,16.78
2017-08-05T06:31:25.584Z,16.79
2017-08-05T06:32:26.202Z,16.84
2017-08-05T06:33:27.071Z,16.87
2017-08-05T06:34:27.702Z,16.81
2017-08-05T06:35:28.321Z,16.90
2017-08-05T06:36:28.938Z,16.83
2017-08-05T06:37:29.562Z,16.90
2017-08-05T06:38:30.482Z,16.84
2017-08-05T06:39:31.100Z,16.87
2017-08-05T06:40:31.726Z,16.84
2017-08-05T06:41:32.347Z,16.90
2017-08-05T06:42:32.963Z,16.93
2017-08-05T06:43:33.832Z,16.89
2017-08-05T06:44:34.451Z,16.96
2017-08-05T06:45:35.073Z,16.96
2017-08-05T06:46:35.700Z,17.08
2017-08-05T06:47:36.352Z,17.11
2017-08-05T06:48:37.221Z,17.14
2017-08-05T06:49:37.841Z,17.15
2017-08-05T06:50:38.460Z,17.09
2017-08-05T06:51:39.079Z,17.14
2017-08-05T06:52:39.701Z,17.12
2017-08-05T06:53:40.569Z,17.11
2017-08-05T06:54:41.188Z,17.14
2017-08-05T06:55:41.815Z,17.23
2017-08-05T06:56:42.430Z,17.26
2017-08-05T06:57:43.049Z,17.30
2017-08-05T06:58:43.926Z,17.26
2017-08-05T06:59:44.547Z,17.31
2017-08-05T07:00:45.169Z,17.31
2017-08-05T07:01:45.788Z,17.34
2017-08-05T07:02:46.438Z,17.33
2017-08-05T07:03:47.370Z,17.30
2017-08-05T07:04:47.981Z,17.31
2017-08-05T07:05:48.620Z,17.34
2017-08-05T07:06:49.241Z,17.34
2017-08-05T07:07:49.861Z,17.42
2017-08-05T07:08:50.781Z,17.49
2017-08-05T07:09:51.401Z,17.52
2017-08-05T07:10:52.021Z,17.60
2017-08-05T07:11:52.640Z,17.51
2017-08-05T07:12:53.257Z,17.60
2017-08-05T07:13:54.130Z,17.54
2017-08-05T07:14:54.751Z,17.46
2017-08-05T07:15:55.375Z,17.45
2017-08-05T07:16:55.997Z,17.36
2017-08-05T07:17:56.615Z,17.41
2017-08-05T07:18:57.485Z,17.41
2017-08-05T07:19:58.107Z,17.42
2017-08-05T07:20:58.726Z,17.45
2017-08-05T07:21:59.346Z,17.52
2017-08-05T07:22:59.966Z,17.54
2017-08-05T07:24:00.835Z,17.46
2017-08-05T07:25:01.454Z,17.59
2017-08-05T07:26:02.075Z,17.54
2017-08-05T07:27:02.696Z,17.68
2017-08-05T07:28:03.317Z,17.71
2017-08-05T07:29:04.236Z,17.67
2017-08-05T07:30:05.157Z,17.86
2017-08-05T07:31:05.779Z,17.83
2017-08-05T07:32:06.399Z,17.78
2017-08-05T07:33:07.022Z,17.80
2017-08-05T07:34:07.673Z,17.80
2017-08-05T07:35:08.599Z,17.82
2017-08-05T07:36:09.266Z,17.86
2017-08-05T07:37:09.917Z,17.87
2017-08-05T07:38:10.540Z,17.90
2017-08-05T07:39:11.160Z,17.87
2017-08-05T07:40:12.081Z,17.86
2017-08-05T07:41:12.708Z,17.89
2017-08-05T07:42:13.326Z,17.78
2017-08-05T07:43:13.948Z,17.86
2017-08-05T07:44:14.574Z,17.86
2017-08-05T07:45:15.489Z,17.82
2017-08-05T07:46:16.147Z,17.94
2017-08-05T07:47:16.769Z,18.00
2017-08-05T07:48:17.399Z,18.00
2017-08-05T07:49:18.049Z,18.01
2017-08-05T07:50:18.921Z,18.13
2017-08-05T07:51:19.574Z,18.15
2017-08-05T07:52:20.196Z,18.10
2017-08-05T07:53:20.824Z,18.11
2017-08-05T07:54:21.448Z,18.23
2017-08-05T07:55:22.317Z,18.25
2017-08-05T07:56:22.937Z,18.33
2017-08-05T07:57:23.558Z,18.38
2017-08-05T07:58:24.183Z,18.35
2017-08-05T07:59:24.805Z,18.35
2017-08-05T08:00:25.683Z,18.45
2017-08-05T08:01:26.308Z,18.53
2017-08-05T08:02:26.931Z,18.45
2017-08-05T08:03:27.550Z,18.41
2017-08-05T08:04:28.208Z,18.38
2017-08-05T08:05:29.084Z,18.38
2017-08-05T08:06:29.703Z,18.47
2017-08-05T08:07:30.330Z,18.41
2017-08-05T08:08:30.948Z,18.38
2017-08-05T08:09:31.571Z,18.37
2017-08-05T08:10:32.442Z,18.34
2017-08-05T08:11:33.064Z,18.38
2017-08-05T08:12:33.691Z,18.37
2017-08-05T08:13:34.315Z,18.37
2017-08-05T08:14:34.935Z,18.56
2017-08-05T08:15:35.863Z,18.59
2017-08-05T08:16:36.482Z,18.60
2017-08-05T08:17:37.102Z,18.68
2017-08-05T08:18:37.725Z,18.70
2017-08-05T08:19:38.346Z,18.83
2017-08-05T08:20:39.276Z,18.84
2017-08-05T08:21:39.894Z,18.90
2017-08-05T08:22:40.516Z,18.98
2017-08-05T08:23:41.143Z,19.08
2017-08-05T08:24:41.762Z,19.07
2017-08-05T08:25:42.684Z,19.04
2017-08-05T08:26:43.306Z,19.14
2017-08-05T08:27:43.928Z,19.15
2017-08-05T08:28:44.591Z,19.14
2017-08-05T08:29:45.214Z,19.18
2017-08-05T08:30:46.131Z,19.18
2017-08-05T08:31:46.758Z,19.14
2017-08-05T08:32:47.378Z,19.15
2017-08-05T08:33:47.999Z,19.29
2017-08-05T08:34:48.622Z,19.33
2017-08-05T08:35:49.545Z,19.45
2017-08-05T08:36:50.178Z,19.49
2017-08-05T08:37:50.798Z,19.48
2017-08-05T08:38:51.419Z,19.48
2017-08-05T08:39:52.045Z,19.45
2017-08-05T08:40:52.956Z,19.59
2017-08-05T08:41:53.578Z,19.63
2017-08-05T08:42:54.200Z,19.66
2017-08-05T08:43:54.826Z,19.77
2017-08-05T08:44:55.445Z,19.77
2017-08-05T08:45:56.402Z,19.82
2017-08-05T08:46:57.026Z,19.81
2017-08-05T08:47:57.647Z,19.96
2017-08-05T08:48:58.271Z,19.76
2017-08-05T08:49:58.901Z,19.77
2017-08-05T08:50:59.777Z,19.81
2017-08-05T08:52:00.404Z,19.91
2017-08-05T08:53:01.024Z,19.81
2017-08-05T08:54:01.652Z,20.00
2017-08-05T08:55:02.271Z,20.00
2017-08-05T08:56:03.195Z,19.95
2017-08-05T08:57:03.851Z,20.04
2017-08-05T08:58:04.472Z,20.06
2017-08-05T08:59:05.094Z,20.21
2017-08-05T09:00:05.716Z,20.14
2017-08-05T09:01:06.589Z,20.21
2017-08-05T09:02:07.220Z,20.34
2017-08-05T09:03:07.840Z,20.32
2017-08-05T09:04:08.463Z,20.44
2017-08-05T09:05:09.084Z,20.40
2017-08-05T09:06:09.990Z,20.51
2017-08-05T09:07:10.618Z,20.60
2017-08-05T09:08:11.540Z,20.52
2017-08-05T09:09:12.173Z,20.58
2017-08-05T09:10:12.822Z,20.56
2017-08-05T09:11:13.475Z,20.65
2017-08-05T09:12:14.100Z,20.65
2017-08-05T09:13:15.020Z,20.77
2017-08-05T09:14:15.644Z,21.03
2017-08-05T09:15:16.303Z,20.96
2017-08-05T09:16:16.925Z,21.07
2017-08-05T09:17:17.553Z,21.22
2017-08-05T09:18:18.473Z,21.20
2017-08-05T09:19:19.095Z,21.35
2017-08-05T09:20:19.720Z,21.45
2017-08-05T09:21:20.342Z,21.36
2017-08-05T09:22:20.964Z,21.46
2017-08-05T09:23:21.837Z,21.51
2017-08-05T09:24:22.459Z,21.62
2017-08-05T09:25:23.089Z,21.64
2017-08-05T09:26:23.712Z,21.57
2017-08-05T09:27:24.335Z,21.54
2017-08-05T09:28:25.248Z,21.61
2017-08-05T09:29:25.869Z,21.66
2017-08-05T09:30:26.524Z,21.69
2017-08-05T09:31:27.153Z,21.66
2017-08-05T09:32:27.773Z,21.69
2017-08-05T09:33:28.697Z,21.69
2017-08-05T09:34:29.320Z,21.67
2017-08-05T09:35:29.943Z,21.67
2017-08-05T09:36:30.568Z,21.70
2017-08-05T09:37:31.192Z,21.80
2017-08-05T09:38:32.071Z,21.72
2017-08-05T09:39:32.698Z,21.73
2017-08-05T09:40:33.322Z,21.80
2017-08-05T09:41:33.944Z,21.76
2017-08-05T09:42:34.567Z,21.91
2017-08-05T09:43:35.480Z,22.00
2017-08-05T09:44:36.103Z,22.06
2017-08-05T09:45:36.726Z,22.14
2017-08-05T09:46:37.348Z,22.14
2017-08-05T09:47:37.980Z,22.08
2017-08-05T09:48:38.906Z,22.00
2017-08-05T09:49:39.530Z,22.07
2017-08-05T09:50:40.157Z,22.04
2017-08-05T09:51:40.786Z,21.98
2017-08-05T09:52:41.406Z,22.20
2017-08-05T09:53:42.279Z,22.18
2017-08-05T09:54:42.908Z,22.30
2017-08-05T09:55:43.537Z,22.44
2017-08-05T09:56:44.159Z,22.41
2017-08-05T09:57:44.781Z,22.47
2017-08-05T09:58:45.705Z,22.38
2017-08-05T09:59:46.328Z,22.35
2017-08-05T10:00:46.954Z,22.41
2017-08-05T10:01:47.579Z,22.48
2017-08-05T10:02:48.208Z,22.48
2017-08-05T10:03:49.079Z,22.54
2017-08-05T10:04:49.708Z,22.68
2017-08-05T10:05:50.366Z,22.69
2017-08-05T10:06:50.991Z,22.69
2017-08-05T10:07:51.622Z,22.72
2017-08-05T10:08:52.543Z,22.75
2017-08-05T10:09:53.169Z,22.78
2017-08-05T10:10:53.801Z,22.85
2017-08-05T10:11:54.423Z,22.96
2017-08-05T10:12:55.046Z,23.06
2017-08-05T10:13:55.921Z,23.06
2017-08-05T10:14:56.546Z,23.17
2017-08-05T10:15:57.170Z,23.12
2017-08-05T10:16:57.830Z,23.08
2017-08-05T10:17:58.454Z,23.12
2017-08-05T10:18:59.377Z,23.21
2017-08-05T10:20:00.000Z,23.37
2017-08-05T10:21:00.626Z,23.39
2017-08-05T10:22:01.253Z,23.48
2017-08-05T10:23:01.876Z,23.55
2017-08-05T10:24:02.803Z,23.56
2017-08-05T10:25:03.461Z,23.58
2017-08-05T10:26:04.083Z,23.55
2017-08-05T10:27:04.711Z,23.59
2017-08-05T10:28:05.335Z,23.66
2017-08-05T10:29:06.209Z,23.77
2017-08-05T10:30:06.836Z,23.86
2017-08-05T10:31:07.460Z,23.93
2017-08-05T10:32:08.086Z,24.06
2017-08-05T10:33:08.711Z,24.18
2017-08-05T10:34:09.586Z,24.43
2017-08-05T10:35:10.216Z,24.42
2017-08-05T10:36:10.838Z,24.50
2017-08-05T10:37:11.462Z,24.40
2017-08-05T10:38:12.089Z,24.50
2017-08-05T10:39:13.018Z,24.55
2017-08-05T10:40:13.641Z,24.76
2017-08-05T10:41:14.263Z,24.69
2017-08-05T10:42:14.927Z,24.77
2017-08-05T10:43:15.550Z,24.80
2017-08-05T10:44:16.475Z,24.84
2017-08-05T10:45:17.102Z,24.92
2017-08-05T10:46:17.727Z,24.95
2017-08-05T10:47:18.351Z,25.04
2017-08-05T10:48:18.978Z,25.03
2017-08-05T10:49:19.908Z,25.04
2017-08-05T10:50:20.532Z,25.03
2017-08-05T10:51:21.156Z,25.06
2017-08-05T10:52:21.783Z,25.04
2017-08-05T10:53:22.408Z,25.01
2017-08-05T10:54:23.337Z,24.96
2017-08-05T10:55:23.962Z,24.91
2017-08-05T10:56:24.590Z,24.84
2017-08-05T10:57:25.250Z,24.84
2017-08-05T10:58:25.885Z,24.99
2017-08-05T10:59:26.755Z,24.98
2017-08-05T11:00:27.382Z,25.03
2017-08-05T11:01:28.008Z,25.04
2017-08-05T11:02:28.639Z,24.96
2017-08-05T11:03:29.262Z,24.95
2017-08-05T11:04:30.144Z,24.86
2017-08-05T11:05:31.068Z,24.89
2017-08-05T11:06:31.694Z,25.07
2017-08-05T11:07:32.323Z,25.08
2017-08-05T11:08:32.948Z,25.13
2017-08-05T11:09:33.574Z,25.31
2017-08-05T11:10:34.466Z,25.25
2017-08-05T11:11:35.077Z,25.11
2017-08-05T11:12:35.705Z,25.16
2017-08-05T11:13:36.332Z,25.17
2017-08-05T11:14:36.957Z,25.03
2017-08-05T11:15:37.884Z,25.07
2017-08-05T11:16:38.519Z,24.95
2017-08-05T11:17:39.149Z,24.92
2017-08-05T11:18:39.773Z,24.81
2017-08-05T11:19:40.401Z,24.74
2017-08-05T11:20:41.335Z,24.63
2017-08-05T11:21:41.967Z,24.69
2017-08-05T11:22:42.595Z,24.86
2017-08-05T11:23:43.221Z,24.93
2017-08-05T11:24:43.849Z,25.10
2017-08-05T11:25:44.759Z,25.25
2017-08-05T11:26:45.385Z,25.13
2017-08-05T11:27:46.013Z,25.21
2017-08-05T11:28:46.637Z,25.43
2017-08-05T11:29:47.265Z,25.60
2017-08-05T11:30:48.233Z,25.85
2017-08-05T11:31:48.859Z,25.81
2017-08-05T11:32:49.486Z,25.87
2017-08-05T11:33:50.113Z,25.81
2017-08-05T11:34:50.742Z,25.78
2017-08-05T11:35:51.675Z,25.78
2017-08-05T11:36:52.300Z,25.62
2017-08-05T11:37:52.927Z,25.68
2017-08-05T11:38:53.555Z,25.81
2017-08-05T11:39:54.189Z,25.77
2017-08-05T11:40:55.063Z,25.91
2017-08-05T11:41:55.689Z,26.06
2017-08-05T11:42:56.318Z,26.00
2017-08-05T11:43:56.948Z,25.98
2017-08-05T11:44:57.579Z,26.07
2017-08-05T11:45:58.539Z,26.02
2017-08-05T11:46:59.167Z,25.98
2017-08-05T11:47:59.796Z,25.95
2017-08-05T11:49:00.429Z,25.95
2017-08-05T11:50:01.054Z,25.93
2017-08-05T11:51:01.981Z,25.98
2017-08-05T11:52:02.612Z,25.91
2017-08-05T11:53:03.244Z,26.00
2017-08-05T11:54:03.870Z,26.26
2017-08-05T11:55:04.532Z,26.18
2017-08-05T11:56:05.410Z,26.15
2017-08-05T11:57:06.040Z,26.21
2017-08-05T11:58:06.966Z,26.22
2017-08-05T11:59:07.599Z,26.23
2017-08-05T12:00:08.222Z,26.38
2017-08-05T12:01:08.851Z,26.47
2017-08-05T12:02:09.483Z,26.37
2017-08-05T12:03:10.359Z,26.33
2017-08-05T12:04:10.992Z,26.34
2017-08-05T12:05:11.623Z,26.48
2017-08-05T12:06:12.250Z,26.52
2017-08-05T12:07:12.877Z,26.48
2017-08-05T12:08:13.804Z,26.48
2017-08-05T12:09:14.435Z,26.48
2017-08-05T12:10:15.062Z,26.48
2017-08-05T12:11:15.690Z,26.63
2017-08-05T12:12:16.320Z,26.68
2017-08-05T12:13:17.196Z,26.71
2017-08-05T12:14:17.825Z,26.71
2017-08-05T12:15:18.459Z,26.75
2017-08-05T12:16:19.090Z,26.78
2017-08-05T12:17:19.715Z,26.97
2017-08-05T12:18:20.607Z,27.17
2017-08-05T12:19:21.227Z,27.14
2017-08-05T12:20:21.858Z,27.02
2017-08-05T12:21:22.487Z,26.99
2017-08-05T12:22:23.117Z,26.88
2017-08-05T12:23:24.050Z,27.00
2017-08-05T12:24:24.677Z,27.15
2017-08-05T12:25:25.308Z,27.32
2017-08-05T12:26:25.937Z,27.32
2017-08-05T12:27:26.602Z,27.32
2017-08-05T12:28:27.529Z,27.47
2017-08-05T12:29:28.158Z,27.55
2017-08-05T12:30:28.827Z,27.70
2017-08-05T12:31:29.459Z,27.89
2017-08-05T12:32:30.118Z,27.73
2017-08-05T12:33:30.995Z,27.55
2017-08-05T12:34:31.630Z,27.48
2017-08-05T12:35:32.257Z,27.52
2017-08-05T12:36:32.890Z,27.67
2017-08-05T12:37:33.523Z,27.90
2017-08-05T12:38:34.454Z,27.90
2017-08-05T12:39:35.118Z,27.85
2017-08-05T12:40:35.780Z,27.86
2017-08-05T12:41:36.417Z,27.90
2017-08-05T12:42:37.052Z,28.00
2017-08-05T12:43:37.930Z,27.93
2017-08-05T12:44:38.557Z,27.78
2017-08-05T12:45:39.186Z,27.70
2017-08-05T12:46:39.849Z,27.63
2017-08-05T12:47:40.517Z,27.36
2017-08-05T12:48:41.451Z,27.26
2017-08-05T12:49:42.085Z,27.30
2017-08-05T12:50:42.710Z,27.29
2017-08-05T12:51:43.354Z,27.36
2017-08-05T12:52:44.018Z,27.58
2017-08-05T12:53:44.931Z,27.85
2017-08-05T12:54:45.561Z,28.01
2017-08-05T12:55:46.195Z,28.00
2017-08-05T12:56:46.827Z,28.10
2017-08-05T12:57:47.458Z,28.02
2017-08-05T12:58:48.385Z,27.98
2017-08-05T12:59:49.015Z,27.82
2017-08-05T13:00:49.949Z,27.60